Aviation Digital Data Service (ADDS)

Output produced by METARs form (0759 UTC 22 October 2014)
found at http://aviationweather.gov/adds/metars/
 
KGMU 220523Z 2206/2306 01009KT P6SM SKC 
     FM230100 35005KT P6SM SKC